Terminal Aerodrome Forecast
Issued by NWS Greer, SC

Home | Current Version | Previous Version | Text Only | Print | Product List | Glossary On
Versions: 1 2 3 4 5 6 7 8 9 10 11 12
562
FTUS42 KGSP 271121
TAFGSP
TAF
KGSP 271121Z 2712/2812 21004KT P6SM FEW050
     FM271500 18007KT P6SM SCT050
     FM280200 14003KT P6SM FEW060
     FM280700 00000KT P6SM FEW250=

USA.gov is the U.S. government's official web portal to all federal, state and local government web resources and services.